Time;durP1;ratioP1;P1;durP2;ratioP2;P2;SDS_P1;SDS_P2;PMS_P1;PMS_P2;Temp;Humidity;BMP_temperature;BMP_pressure;BME280_temperature;BME280_humidity;BME280_pressure;Samples;Min_cycle;Max_cycle;Signal;HPM_P1;HPM_P2
2023/06/17 00:01:35;;;;;;;7.28;6.43;;;22.70;49.80;;;;;;5032881;28;20641;-81
2023/06/17 00:04:02;;;;;;;7.75;6.68;;;22.70;49.90;;;;;;5032794;28;20171;-82
2023/06/17 00:06:28;;;;;;;7.60;6.30;;;22.70;49.90;;;;;;5033968;28;20525;-80
2023/06/17 00:08:54;;;;;;;7.10;6.22;;;22.70;49.90;;;;;;5016672;28;20224;-82
2023/06/17 00:11:20;;;;;;;7.43;6.63;;;22.70;49.90;;;;;;5033843;28;20277;-81
2023/06/17 00:13:46;;;;;;;7.57;6.75;;;22.60;49.80;;;;;;5033734;28;20163;-82
2023/06/17 00:16:12;;;;;;;7.45;6.63;;;22.70;49.90;;;;;;5016027;28;20163;-81
2023/06/17 00:18:39;;;;;;;7.22;6.47;;;22.70;49.90;;;;;;5033707;28;20208;-82
2023/06/17 00:21:05;;;;;;;7.03;6.32;;;22.70;49.90;;;;;;5032599;28;20151;-82
2023/06/17 00:23:31;;;;;;;7.70;6.75;;;22.70;49.90;;;;;;5032719;28;20181;-81
2023/06/17 00:25:57;;;;;;;7.30;6.50;;;22.70;50.00;;;;;;5033735;28;20174;-83
2023/06/17 00:28:23;;;;;;;7.97;6.97;;;22.60;49.90;;;;;;5032694;28;20522;-82
2023/06/17 00:30:49;;;;;;;7.35;6.60;;;22.70;50.00;;;;;;5033572;28;20159;-81
2023/06/17 00:33:15;;;;;;;7.13;6.40;;;22.70;49.90;;;;;;5015798;28;20258;-81
2023/06/17 00:35:41;;;;;;;7.93;6.70;;;22.60;49.90;;;;;;5032307;28;20289;-81
2023/06/17 00:38:07;;;;;;;7.53;6.60;;;22.70;50.00;;;;;;5032649;28;20238;-81
2023/06/17 00:40:33;;;;;;;7.22;6.15;;;22.70;50.00;;;;;;5033432;28;20513;-81
2023/06/17 00:42:59;;;;;;;7.38;6.55;;;22.60;49.90;;;;;;5016129;28;20178;-83
2023/06/17 00:45:25;;;;;;;7.28;6.25;;;22.60;49.90;;;;;;5033398;28;20163;-79
2023/06/17 00:47:50;;;;;;;7.20;6.45;;;22.60;50.00;;;;;;5015556;28;20317;-81
2023/06/17 00:50:17;;;;;;;7.35;6.32;;;22.60;50.30;;;;;;5015843;28;20672;-79
2023/06/17 00:52:44;;;;;;;7.13;6.38;;;22.60;50.00;;;;;;5033099;28;20190;-82
2023/06/17 00:55:10;;;;;;;8.63;6.60;;;22.60;50.00;;;;;;5015527;28;20170;-80
2023/06/17 00:57:37;;;;;;;8.20;7.00;;;22.60;50.10;;;;;;5033481;28;20561;-81
2023/06/17 01:00:06;;;;;;;7.15;6.43;;;22.60;50.10;;;;;;5031962;28;20147;-82
2023/06/17 01:02:32;;;;;;;7.65;6.63;;;22.60;50.00;;;;;;5015452;28;20286;-80
2023/06/17 01:04:58;;;;;;;7.22;6.38;;;22.60;50.10;;;;;;5032765;28;20163;-80
2023/06/17 01:07:57;;;;;;;7.15;6.38;;;22.60;50.10;;;;;;5031814;28;20606;-80
2023/06/17 01:10:46;;;;;;;7.18;6.45;;;22.60;50.10;;;;;;5032192;28;20197;-82
2023/06/17 01:13:13;;;;;;;7.20;6.50;;;22.60;50.10;;;;;;5015153;28;20189;-79
2023/06/17 01:15:38;;;;;;;6.80;6.10;;;22.60;50.10;;;;;;5016085;28;20576;-82
2023/06/17 01:18:07;;;;;;;7.00;6.20;;;22.60;50.10;;;;;;5031607;28;20170;-82
2023/06/17 01:20:32;;;;;;;7.97;6.88;;;22.60;50.10;;;;;;5033234;28;20154;-80
2023/06/17 01:22:59;;;;;;;7.28;6.32;;;22.50;50.10;;;;;;5015310;28;20728;-80
2023/06/17 01:25:30;;;;;;;8.10;7.15;;;22.50;50.10;;;;;;5015177;28;20537;-81
2023/06/17 01:28:00;;;;;;;7.32;6.50;;;22.50;50.20;;;;;;5033034;28;20210;-81
2023/06/17 01:30:28;;;;;;;7.72;6.53;;;22.50;50.80;;;;;;5031590;28;20205;-82
2023/06/17 01:32:58;;;;;;;7.75;6.57;;;22.50;50.10;;;;;;5032849;28;20183;-82
2023/06/17 01:35:24;;;;;;;7.55;6.75;;;22.50;50.10;;;;;;5015210;28;20643;-81
2023/06/17 01:37:56;;;;;;;7.50;6.63;;;22.50;50.20;;;;;;5031653;28;20151;-81
2023/06/17 01:40:22;;;;;;;7.70;6.85;;;22.50;50.20;;;;;;5031480;28;20159;-82
2023/06/17 01:42:50;;;;;;;7.47;6.60;;;22.50;50.10;;;;;;5031587;28;20596;-81
2023/06/17 01:45:15;;;;;;;7.53;6.53;;;22.50;50.10;;;;;;5031527;28;20155;-80
2023/06/17 01:47:42;;;;;;;7.30;6.38;;;22.50;50.20;;;;;;5032538;28;20308;-82
2023/06/17 01:50:08;;;;;;;7.55;6.25;;;22.50;50.10;;;;;;5033056;28;20266;-80
2023/06/17 01:52:34;;;;;;;7.35;6.40;;;22.50;50.20;;;;;;5032578;28;20189;-83
2023/06/17 01:55:00;;;;;;;7.60;6.45;;;22.50;50.20;;;;;;5031586;28;20234;-82
2023/06/17 01:57:26;;;;;;;7.38;6.57;;;22.50;50.20;;;;;;5014940;28;20698;-81
2023/06/17 01:59:53;;;;;;;7.88;6.85;;;22.50;50.30;;;;;;5032503;28;20171;-81
2023/06/17 02:02:19;;;;;;;7.30;6.38;;;22.50;50.30;;;;;;5031801;28;20208;-81
2023/06/17 02:04:47;;;;;;;7.88;7.00;;;22.50;50.30;;;;;;5014867;28;20634;-82
2023/06/17 02:07:16;;;;;;;8.55;6.80;;;22.50;50.20;;;;;;5015596;28;20181;-82
2023/06/17 02:09:42;;;;;;;6.93;6.22;;;22.50;50.30;;;;;;5031432;28;20177;-82
2023/06/17 02:12:08;;;;;;;7.03;6.30;;;22.50;50.30;;;;;;5032756;28;20525;-83
2023/06/17 02:14:34;;;;;;;7.45;6.70;;;22.40;50.30;;;;;;5015347;28;20170;-81
2023/06/17 02:17:00;;;;;;;7.18;6.38;;;22.40;50.30;;;;;;5031659;28;20151;-81
2023/06/17 02:19:28;;;;;;;7.22;6.30;;;22.50;50.40;;;;;;5036019;28;20147;-80
2023/06/17 02:21:55;;;;;;;8.27;6.75;;;22.40;50.50;;;;;;5035075;28;20186;-81
2023/06/17 02:24:21;;;;;;;7.88;6.72;;;22.30;50.30;;;;;;5036112;28;20198;-82
2023/06/17 02:26:49;;;;;;;7.97;6.70;;;22.40;50.30;;;;;;5018119;28;20178;-81
2023/06/17 02:29:16;;;;;;;7.63;6.80;;;22.40;50.30;;;;;;5034609;28;20169;-81
2023/06/17 02:31:41;;;;;;;7.40;6.47;;;22.40;50.30;;;;;;5018181;28;20627;-81
2023/06/17 02:34:07;;;;;;;6.82;6.03;;;22.40;50.30;;;;;;5035684;28;20230;-81
2023/06/17 02:36:33;;;;;;;6.85;6.15;;;22.30;50.30;;;;;;5018102;28;20554;-79
2023/06/17 02:39:00;;;;;;;7.35;6.55;;;22.40;51.00;;;;;;5034616;28;20679;-81
2023/06/17 02:41:26;;;;;;;7.97;6.97;;;22.40;50.40;;;;;;5034465;28;20159;-80
2023/06/17 02:43:52;;;;;;;7.68;6.60;;;22.40;50.40;;;;;;5034526;28;20198;-81
2023/06/17 02:46:17;;;;;;;7.45;6.57;;;22.40;50.40;;;;;;5018079;28;20210;-81
2023/06/17 02:48:43;;;;;;;7.70;6.55;;;22.40;50.40;;;;;;5035545;28;20170;-80
2023/06/17 02:51:09;;;;;;;7.43;6.55;;;22.40;50.40;;;;;;5017856;28;20243;-79
2023/06/17 02:53:35;;;;;;;7.57;6.47;;;22.40;50.30;;;;;;5034238;28;20162;-80
2023/06/17 02:56:01;;;;;;;8.75;7.13;;;22.40;50.40;;;;;;5035402;28;20154;-82
2023/06/17 02:58:27;;;;;;;7.68;6.40;;;22.40;50.40;;;;;;5017362;28;20646;-80
2023/06/17 03:00:54;;;;;;;7.20;6.13;;;22.40;50.50;;;;;;5034080;28;20159;-82
2023/06/17 03:03:26;;;;;;;7.78;6.72;;;22.30;50.40;;;;;;5033970;28;20187;-79
2023/06/17 03:05:52;;;;;;;7.72;6.63;;;22.40;50.50;;;;;;5035280;28;20624;-82
2023/06/17 03:08:18;;;;;;;7.18;6.43;;;22.30;50.40;;;;;;5035157;28;20230;-81
2023/06/17 03:10:44;;;;;;;8.23;6.63;;;22.30;50.40;;;;;;5033793;28;20161;-80
2023/06/17 03:13:11;;;;;;;7.53;6.57;;;22.30;50.40;;;;;;5035026;28;20190;-82
2023/06/17 03:15:36;;;;;;;7.80;6.53;;;22.30;50.40;;;;;;5034105;28;20159;-80
2023/06/17 03:18:03;;;;;;;7.63;6.50;;;22.30;50.50;;;;;;5034829;28;20159;-80
2023/06/17 03:20:29;;;;;;;7.32;6.43;;;22.30;50.40;;;;;;5033699;28;20198;-82
2023/06/17 03:22:55;;;;;;;7.32;6.40;;;22.30;50.40;;;;;;5017331;28;20206;-82
2023/06/17 03:25:22;;;;;;;7.07;6.18;;;22.40;50.40;;;;;;5033999;28;20183;-80
2023/06/17 03:27:48;;;;;;;8.57;7.25;;;22.40;50.40;;;;;;5034892;28;20155;-81
2023/06/17 03:30:14;;;;;;;7.78;6.95;;;22.30;50.40;;;;;;5033368;28;20158;-82
2023/06/17 03:32:41;;;;;;;7.53;6.43;;;22.30;50.50;;;;;;5016749;28;20756;-79
2023/06/17 03:35:07;;;;;;;7.43;6.40;;;22.30;50.40;;;;;;5034106;28;20186;-81
2023/06/17 03:37:33;;;;;;;8.07;6.60;;;22.30;50.40;;;;;;5033269;28;20147;-82
2023/06/17 03:39:59;;;;;;;7.43;6.50;;;22.30;50.30;;;;;;5033250;28;20165;-82
2023/06/17 03:42:25;;;;;;;7.20;6.50;;;22.30;50.40;;;;;;5034603;28;20241;-82
2023/06/17 03:44:51;;;;;;;7.88;6.57;;;22.30;50.40;;;;;;5034374;28;20250;-81
2023/06/17 03:47:17;;;;;;;7.10;6.30;;;22.40;50.30;;;;;;5032837;28;20274;-82
2023/06/17 03:49:44;;;;;;;7.30;6.10;;;22.40;50.30;;;;;;5033106;28;20206;-83
2023/06/17 03:52:10;;;;;;;6.55;5.68;;;22.30;50.10;;;;;;5033084;28;20715;-81
2023/06/17 03:54:36;;;;;;;7.20;6.50;;;22.40;50.10;;;;;;5016548;28;20163;-80
2023/06/17 03:57:02;;;;;;;7.13;6.30;;;22.40;50.20;;;;;;5033016;28;20151;-81
2023/06/17 03:59:28;;;;;;;6.35;5.75;;;22.40;50.20;;;;;;5016438;28;20167;-83
2023/06/17 04:01:54;;;;;;;7.55;6.45;;;22.30;50.10;;;;;;5016377;28;20162;-82
2023/06/17 04:04:20;;;;;;;7.82;6.32;;;22.40;50.20;;;;;;5034020;28;20531;-81
2023/06/17 04:06:46;;;;;;;7.65;6.53;;;22.40;50.10;;;;;;5034338;28;20190;-82
2023/06/17 04:09:11;;;;;;;6.80;6.10;;;22.40;50.20;;;;;;5033945;28;20237;-81
2023/06/17 04:11:37;;;;;;;7.93;6.75;;;22.40;50.10;;;;;;5032478;28;20324;-81
2023/06/17 04:14:03;;;;;;;7.25;6.55;;;22.40;50.10;;;;;;5015956;28;20163;-82
2023/06/17 04:16:35;;;;;;;6.72;5.90;;;22.40;50.70;;;;;;5034231;28;20545;-80
2023/06/17 04:19:01;;;;;;;6.40;5.78;;;22.40;50.00;;;;;;5016159;28;20621;-82
2023/06/17 04:21:28;;;;;;;7.28;6.40;;;22.50;49.90;;;;;;5032719;28;20193;-84
2023/06/17 04:23:54;;;;;;;7.13;6.22;;;22.50;49.80;;;;;;5032526;28;20242;-81
2023/06/17 04:26:20;;;;;;;6.70;6.03;;;22.50;49.80;;;;;;5033728;28;20209;-81
2023/06/17 04:28:47;;;;;;;7.38;6.55;;;22.50;49.80;;;;;;5015791;28;20167;-82
2023/06/17 04:31:15;;;;;;;7.88;6.20;;;22.40;49.80;;;;;;5016298;28;20587;-83
2023/06/17 04:33:41;;;;;;;6.47;5.78;;;22.50;49.70;;;;;;5033902;28;20594;-83
2023/06/17 04:36:08;;;;;;;7.07;5.93;;;22.50;49.70;;;;;;5032385;28;20230;-83
2023/06/17 04:38:38;;;;;;;6.93;5.80;;;22.60;49.70;;;;;;5015756;28;20198;-82
2023/06/17 04:41:05;;;;;;;6.75;6.00;;;22.60;49.70;;;;;;5032992;28;20151;-81
2023/06/17 04:43:33;;;;;;;7.45;6.28;;;22.50;49.50;;;;;;5033362;28;20255;-82
2023/06/17 04:46:01;;;;;;;6.35;5.75;;;22.60;49.50;;;;;;5032385;28;20152;-81
2023/06/17 04:48:28;;;;;;;6.80;6.05;;;22.60;49.40;;;;;;5033076;28;20218;-81
2023/06/17 04:50:55;;;;;;;7.38;6.40;;;22.60;49.50;;;;;;5031967;28;20209;-83
2023/06/17 04:53:21;;;;;;;7.05;6.03;;;22.60;49.50;;;;;;5032263;28;20173;-80
2023/06/17 04:55:47;;;;;;;6.78;5.93;;;22.60;49.40;;;;;;5033171;28;20151;-82
2023/06/17 04:58:13;;;;;;;7.18;6.38;;;22.60;49.40;;;;;;5032270;28;20179;-80
2023/06/17 05:00:39;;;;;;;6.53;5.82;;;22.60;49.30;;;;;;5032344;28;20513;-82
2023/06/17 05:03:05;;;;;;;7.30;6.35;;;22.70;49.30;;;;;;5033546;28;20231;-84
2023/06/17 05:05:31;;;;;;;7.28;6.45;;;22.60;49.30;;;;;;5033394;28;20609;-83
2023/06/17 05:07:57;;;;;;;6.95;6.18;;;22.70;49.20;;;;;;5016093;28;20182;-81
2023/06/17 05:10:23;;;;;;;6.80;6.07;;;22.70;49.20;;;;;;5031757;28;20574;-83
2023/06/17 05:12:48;;;;;;;7.65;6.00;;;22.70;49.20;;;;;;5031929;28;20266;-81
2023/06/17 05:15:14;;;;;;;6.55;5.85;;;22.70;49.30;;;;;;5031807;28;20229;-82
2023/06/17 05:17:40;;;;;;;6.63;5.95;;;22.70;49.30;;;;;;5015210;28;20175;-83
2023/06/17 05:20:07;;;;;;;7.50;6.55;;;22.70;49.20;;;;;;5015315;28;20185;-81
2023/06/17 05:22:33;;;;;;;6.82;6.13;;;22.70;49.20;;;;;;5031815;28;20220;-83
2023/06/17 05:25:00;;;;;;;6.75;5.78;;;22.60;49.30;;;;;;5033130;28;20606;-83
2023/06/17 05:27:26;;;;;;;7.63;6.10;;;22.70;49.30;;;;;;5032877;28;20158;-83
2023/06/17 05:29:52;;;;;;;7.78;6.60;;;22.70;49.10;;;;;;5032849;28;20166;-81
2023/06/17 05:32:18;;;;;;;7.00;6.30;;;22.70;49.20;;;;;;5033010;28;20205;-82
2023/06/17 05:34:44;;;;;;;6.68;5.97;;;22.70;49.20;;;;;;5032005;28;20518;-80
2023/06/17 05:37:10;;;;;;;6.90;5.97;;;22.70;49.80;;;;;;5031900;28;20221;-81
2023/06/17 05:39:36;;;;;;;6.70;6.00;;;22.70;49.10;;;;;;5033045;28;20490;-82
2023/06/17 05:42:02;;;;;;;7.88;6.80;;;22.70;49.20;;;;;;5032937;28;20200;-81
2023/06/17 05:44:28;;;;;;;6.72;5.90;;;22.70;49.10;;;;;;5031574;28;20185;-81
2023/06/17 05:46:54;;;;;;;6.78;6.07;;;22.70;49.10;;;;;;5014852;28;20588;-82
2023/06/17 05:49:20;;;;;;;6.63;5.93;;;22.70;49.20;;;;;;5031483;28;20539;-80
2023/06/17 05:51:46;;;;;;;8.00;6.55;;;22.70;49.10;;;;;;5032744;28;20194;-82
2023/06/17 05:54:11;;;;;;;7.22;6.47;;;22.70;49.10;;;;;;5035069;28;20166;-80
2023/06/17 05:56:37;;;;;;;7.57;6.47;;;22.70;49.20;;;;;;5018543;28;20174;-81
2023/06/17 05:59:03;;;;;;;7.32;6.18;;;22.80;48.90;;;;;;5036607;28;20213;-82
2023/06/17 06:01:29;;;;;;;7.40;6.57;;;22.80;48.90;;;;;;5036271;28;20592;-80
2023/06/17 06:03:55;;;;;;;6.47;5.72;;;22.80;48.90;;;;;;5036371;28;20150;-82
2023/06/17 06:06:21;;;;;;;7.10;6.32;;;22.80;48.90;;;;;;5018569;28;20179;-81
2023/06/17 06:08:47;;;;;;;6.45;5.70;;;22.80;48.90;;;;;;5036262;28;20221;-83
2023/06/17 06:11:14;;;;;;;6.90;6.20;;;22.80;48.80;;;;;;5036320;28;20162;-82
2023/06/17 06:13:40;;;;;;;7.07;6.15;;;22.80;48.80;;;;;;5018535;28;20155;-83
2023/06/17 06:16:06;;;;;;;6.47;5.82;;;22.80;48.90;;;;;;5018339;28;20606;-82
2023/06/17 06:18:32;;;;;;;8.13;6.57;;;22.80;48.90;;;;;;5036440;28;20173;-81
2023/06/17 06:20:58;;;;;;;7.05;5.97;;;22.90;48.80;;;;;;5018262;28;20163;-82
2023/06/17 06:23:24;;;;;;;7.90;6.30;;;22.90;48.70;;;;;;5018184;28;20621;-83
2023/06/17 06:25:50;;;;;;;7.28;6.05;;;22.90;48.50;;;;;;5018229;28;20248;-81
2023/06/17 06:28:16;;;;;;;7.30;6.55;;;22.80;48.60;;;;;;5035838;28;20190;-82
2023/06/17 06:30:42;;;;;;;6.70;6.00;;;23.00;48.50;;;;;;5034728;28;20174;-83
2023/06/17 06:33:07;;;;;;;7.50;6.70;;;23.00;48.30;;;;;;5034431;28;20714;-82
2023/06/17 06:35:33;;;;;;;7.40;6.05;;;23.00;48.50;;;;;;5018599;28;20162;-82
2023/06/17 06:37:59;;;;;;;6.90;5.95;;;22.90;48.50;;;;;;5018018;28;20205;-83
2023/06/17 06:40:25;;;;;;;7.60;6.43;;;22.70;48.70;;;;;;5035678;28;20583;-82
2023/06/17 06:42:51;;;;;;;5.93;5.32;;;22.60;48.90;;;;;;5035667;28;20174;-81
2023/06/17 06:45:17;;;;;;;6.80;6.10;;;22.50;48.70;;;;;;5035465;28;20159;-81
2023/06/17 06:47:43;;;;;;;6.82;5.80;;;22.50;48.60;;;;;;5017821;28;20234;-83
2023/06/17 06:50:09;;;;;;;6.72;5.68;;;22.60;48.30;;;;;;5034394;28;20162;-80
2023/06/17 06:52:35;;;;;;;6.68;5.78;;;22.60;48.30;;;;;;5017899;28;20199;-83
2023/06/17 06:55:01;;;;;;;6.38;5.70;;;22.50;48.50;;;;;;5035468;28;20163;-80
2023/06/17 06:57:27;;;;;;;6.45;5.68;;;22.50;48.30;;;;;;5035604;28;20155;-80
2023/06/17 06:59:53;;;;;;;7.55;6.03;;;22.60;48.10;;;;;;5034076;28;20225;-83
2023/06/17 07:02:19;;;;;;;6.25;5.63;;;22.60;48.00;;;;;;5035286;28;20302;-81
2023/06/17 07:04:45;;;;;;;6.85;5.72;;;22.60;48.20;;;;;;5033357;28;20186;-83
2023/06/17 07:07:11;;;;;;;6.68;5.90;;;22.50;47.90;;;;;;5017435;28;20174;-82
2023/06/17 07:09:38;;;;;;;7.13;5.93;;;22.60;48.00;;;;;;5034002;28;20162;-81
2023/06/17 07:12:05;;;;;;;6.65;5.75;;;22.60;47.80;;;;;;5035344;28;20183;-83
2023/06/17 07:14:31;;;;;;;6.32;5.35;;;22.60;47.80;;;;;;5035388;28;20637;-80
2023/06/17 07:16:57;;;;;;;6.50;5.57;;;22.60;47.90;;;;;;5017918;28;20167;-83
2023/06/17 07:19:23;;;;;;;5.80;5.20;;;22.50;48.00;;;;;;5035061;28;20158;-81
2023/06/17 07:21:49;;;;;;;7.20;5.80;;;22.60;47.70;;;;;;5034655;28;20544;-81
2023/06/17 07:24:16;;;;;;;5.88;4.95;;;22.60;47.60;;;;;;5017618;28;20253;-81
2023/06/17 07:26:42;;;;;;;6.57;5.88;;;22.70;47.30;;;;;;5035265;28;20213;-81
2023/06/17 07:29:07;;;;;;;6.03;5.43;;;22.70;47.20;;;;;;5034516;28;20159;-80
2023/06/17 07:31:34;;;;;;;6.68;5.45;;;22.80;47.10;;;;;;5017546;28;20205;-82
2023/06/17 07:34:00;;;;;;;5.95;4.90;;;22.80;47.10;;;;;;5017674;28;20621;-80
2023/06/17 07:36:26;;;;;;;6.07;5.15;;;22.70;47.00;;;;;;5035022;28;20171;-83
2023/06/17 07:38:52;;;;;;;6.22;5.40;;;22.70;47.00;;;;;;5033702;28;20535;-80
2023/06/17 07:41:18;;;;;;;5.93;5.32;;;22.60;47.00;;;;;;5033284;28;20158;-82
2023/06/17 07:43:44;;;;;;;6.70;5.75;;;22.60;47.70;;;;;;5033293;28;20172;-80
2023/06/17 07:46:10;;;;;;;5.22;4.70;;;22.70;47.00;;;;;;5033620;28;20625;-82
2023/06/17 07:48:36;;;;;;;6.10;5.22;;;22.70;47.00;;;;;;5017496;28;20217;-83
2023/06/17 07:51:02;;;;;;;5.75;5.00;;;22.60;47.00;;;;;;5034682;28;20190;-81
2023/06/17 07:53:28;;;;;;;6.40;5.13;;;22.60;46.80;;;;;;5016907;28;20197;-83
2023/06/17 07:55:54;;;;;;;5.32;4.82;;;22.60;46.90;;;;;;5035105;28;20238;-81
2023/06/17 07:58:20;;;;;;;5.35;4.82;;;22.60;46.80;;;;;;5033429;28;20246;-81
2023/06/17 08:00:46;;;;;;;6.80;5.03;;;22.70;46.50;;;;;;5034869;28;20637;-81
2023/06/17 08:03:12;;;;;;;6.38;5.05;;;22.80;46.30;;;;;;5033336;28;20163;-81
2023/06/17 08:05:38;;;;;;;5.13;4.63;;;22.70;46.40;;;;;;5017154;28;20310;-82
2023/06/17 08:08:04;;;;;;;5.32;4.82;;;22.80;46.30;;;;;;5034653;28;20155;-83
2023/06/17 08:10:30;;;;;;;5.85;4.60;;;22.80;46.20;;;;;;5033072;28;20151;-83
2023/06/17 08:12:56;;;;;;;5.38;4.80;;;22.80;46.00;;;;;;5016598;28;20317;-81
2023/06/17 08:15:22;;;;;;;5.93;4.25;;;22.80;46.10;;;;;;5032152;28;20174;-82
2023/06/17 08:17:48;;;;;;;5.35;4.85;;;22.90;45.90;;;;;;5016585;28;20163;-80
2023/06/17 08:20:16;;;;;;;5.50;4.85;;;22.90;45.80;;;;;;5034681;28;20676;-83
2023/06/17 08:22:42;;;;;;;5.60;5.00;;;22.80;46.00;;;;;;5034096;28;20159;-83
2023/06/17 08:25:09;;;;;;;5.28;4.78;;;22.80;46.00;;;;;;5034291;28;20170;-82
2023/06/17 08:27:34;;;;;;;5.22;4.65;;;22.80;46.00;;;;;;5033305;28;20169;-82
2023/06/17 08:30:00;;;;;;;5.07;4.53;;;22.80;46.00;;;;;;5033004;28;20155;-82
2023/06/17 08:32:26;;;;;;;5.07;4.50;;;22.80;46.00;;;;;;5015934;28;20581;-83
2023/06/17 08:34:52;;;;;;;5.28;4.72;;;22.80;45.90;;;;;;5032348;28;20199;-84
2023/06/17 08:37:18;;;;;;;5.60;4.72;;;22.90;45.70;;;;;;5032844;28;20173;-81
2023/06/17 08:39:44;;;;;;;5.95;4.70;;;22.90;45.70;;;;;;5016233;28;20249;-81
2023/06/17 08:42:10;;;;;;;6.68;4.38;;;22.90;45.80;;;;;;5033010;28;20208;-83
2023/06/17 08:44:40;;;;;;;5.78;4.57;;;22.90;45.60;;;;;;5015734;28;20217;-83
2023/06/17 08:47:05;;;;;;;5.28;4.75;;;22.90;45.50;;;;;;5032244;28;20217;-80
2023/06/17 08:49:31;;;;;;;5.75;4.78;;;23.00;45.50;;;;;;5015550;28;20184;-83
2023/06/17 08:51:59;;;;;;;5.10;4.13;;;22.90;45.60;;;;;;5033354;28;20221;-83
2023/06/17 08:54:25;;;;;;;4.95;4.40;;;22.90;45.50;;;;;;5032047;28;20639;-84
2023/06/17 08:56:53;;;;;;;4.93;4.38;;;23.00;45.40;;;;;;5032005;28;20162;-81
2023/06/17 08:59:19;;;;;;;4.63;4.03;;;22.90;45.50;;;;;;5015744;28;20174;-83
2023/06/17 09:01:45;;;;;;;5.22;4.65;;;22.90;45.40;;;;;;5032514;28;20184;-80
2023/06/17 09:04:12;;;;;;;4.85;4.35;;;22.90;45.60;;;;;;5015788;28;20261;-83
2023/06/17 09:06:38;;;;;;;5.03;4.30;;;22.90;45.60;;;;;;5033151;28;20161;-83
2023/06/17 09:09:04;;;;;;;4.90;4.40;;;22.90;45.60;;;;;;5032960;28;20163;-80
2023/06/17 09:11:31;;;;;;;5.30;4.60;;;22.90;45.50;;;;;;5015393;28;20194;-82
2023/06/17 09:13:58;;;;;;;4.63;4.15;;;22.90;45.30;;;;;;5031854;28;20186;-82
2023/06/17 09:16:29;;;;;;;4.72;4.15;;;22.90;45.40;;;;;;5015372;28;20171;-80
2023/06/17 09:18:56;;;;;;;5.70;3.80;;;23.10;45.10;;;;;;5031947;28;20240;-83
2023/06/17 09:21:23;;;;;;;6.38;4.32;;;23.10;44.90;;;;;;5015590;28;20687;-81
2023/06/17 09:23:54;;;;;;;5.03;4.50;;;23.10;45.00;;;;;;5031770;28;20159;-81
2023/06/17 09:26:22;;;;;;;4.72;4.13;;;23.00;45.00;;;;;;5033601;28;20170;-80
2023/06/17 09:28:48;;;;;;;4.30;3.90;;;23.00;45.00;;;;;;5019108;28;20253;-83
2023/06/17 09:31:14;;;;;;;4.75;4.20;;;23.10;45.00;;;;;;5035847;28;20614;-81
2023/06/17 09:33:43;;;;;;;4.93;4.43;;;23.10;44.80;;;;;;5019234;28;20166;-80
2023/06/17 09:36:09;;;;;;;6.05;4.60;;;23.10;44.90;;;;;;5035688;28;20182;-83
2023/06/17 09:38:37;;;;;;;5.20;4.32;;;23.10;44.80;;;;;;5035614;28;20167;-80
2023/06/17 09:41:04;;;;;;;4.78;4.25;;;23.10;45.00;;;;;;5035986;28;20537;-82
2023/06/17 09:43:30;;;;;;;4.95;4.40;;;23.10;44.90;;;;;;5036694;28;20197;-81
2023/06/17 09:45:59;;;;;;;5.00;4.38;;;23.10;44.80;;;;;;5019182;28;20205;-80
2023/06/17 09:48:33;;;;;;;5.28;4.47;;;23.20;44.70;;;;;;5036444;28;20218;-81
2023/06/17 09:50:59;;;;;;;4.65;4.18;;;23.20;44.60;;;;;;5036616;28;20154;-82
2023/06/17 09:53:27;;;;;;;4.47;4.03;;;23.20;44.50;;;;;;5036750;28;20213;-81
2023/06/17 09:55:57;;;;;;;5.43;4.70;;;23.20;44.50;;;;;;5035613;28;20175;-82
2023/06/17 09:58:26;;;;;;;5.13;4.15;;;23.30;44.40;;;;;;5019065;28;20186;-83
2023/06/17 10:00:52;;;;;;;4.88;4.38;;;23.20;44.60;;;;;;5019266;28;20692;-81
2023/06/17 10:03:19;;;;;;;5.13;4.47;;;23.20;44.60;;;;;;5036307;28;20233;-81
2023/06/17 10:05:47;;;;;;;6.18;4.10;;;23.20;44.60;;;;;;5036367;28;20175;-81
2023/06/17 10:08:13;;;;;;;5.25;4.43;;;23.20;44.50;;;;;;5036385;28;20613;-82
2023/06/17 10:10:39;;;;;;;4.35;3.85;;;23.20;44.60;;;;;;5036420;28;20236;-83
2023/06/17 10:13:06;;;;;;;5.45;4.38;;;23.30;44.40;;;;;;5035071;28;20182;-82
2023/06/17 10:15:32;;;;;;;4.75;4.25;;;23.20;44.50;;;;;;5019096;28;20181;-82
2023/06/17 10:17:58;;;;;;;4.78;4.25;;;23.20;44.60;;;;;;5034915;28;20155;-83
2023/06/17 10:20:24;;;;;;;5.05;4.55;;;23.20;44.60;;;;;;5018422;28;20248;-80
2023/06/17 10:22:54;;;;;;;5.32;4.50;;;23.30;44.60;;;;;;5036112;28;20165;-80
2023/06/17 10:25:20;;;;;;;3.80;3.42;;;23.40;44.40;;;;;;5036130;28;20155;-84
2023/06/17 10:27:46;;;;;;;4.78;4.20;;;23.30;44.40;;;;;;5035437;28;20170;-83
2023/06/17 10:30:26;;;;;;;4.28;3.88;;;23.30;44.40;;;;;;5036396;28;20173;-82
2023/06/17 10:32:57;;;;;;;5.30;4.55;;;23.30;44.40;;;;;;5019784;28;20205;-81
2023/06/17 10:35:24;;;;;;;4.40;4.00;;;23.30;44.50;;;;;;5035090;28;20189;-78
2023/06/17 10:37:50;;;;;;;5.07;4.10;;;23.20;44.70;;;;;;5033665;28;20197;-82
2023/06/17 10:40:26;;;;;;;5.00;4.50;;;23.30;44.90;;;;;;5034405;28;20618;-79
2023/06/17 10:43:17;;;;;;;4.70;4.20;;;23.20;44.60;;;;;;5018161;28;20264;-82
2023/06/17 10:45:51;;;;;;;4.47;4.05;;;23.20;44.70;;;;;;5035810;28;20163;-81
2023/06/17 10:48:29;;;;;;;4.57;4.13;;;23.30;44.60;;;;;;5035277;28;20266;-81
2023/06/17 10:50:58;;;;;;;5.55;4.50;;;23.30;44.60;;;;;;5035422;28;20161;-80
2023/06/17 10:53:27;;;;;;;4.40;4.00;;;23.30;44.50;;;;;;5034015;28;20221;-80
2023/06/17 10:55:53;;;;;;;5.25;4.60;;;23.30;44.70;;;;;;5034256;28;20154;-80
2023/06/17 10:58:19;;;;;;;5.13;4.30;;;23.30;44.50;;;;;;5017828;28;20536;-79
2023/06/17 11:00:45;;;;;;;4.43;4.03;;;23.30;44.60;;;;;;5034201;28;20178;-82
2023/06/17 11:03:14;;;;;;;4.68;4.18;;;23.40;44.50;;;;;;5016100;28;20225;-81
2023/06/17 11:05:40;;;;;;;4.47;4.07;;;23.30;44.50;;;;;;5017503;28;20155;-79
2023/06/17 11:08:06;;;;;;;4.80;4.30;;;23.40;44.50;;;;;;5017755;28;20163;-81
2023/06/17 11:10:31;;;;;;;6.03;4.38;;;23.40;44.50;;;;;;5027828;28;20192;-80
2023/06/17 11:12:58;;;;;;;4.50;4.10;;;23.40;44.50;;;;;;5020966;28;20205;-79
2023/06/17 11:15:23;;;;;;;4.72;4.22;;;23.40;44.40;;;;;;5040023;28;20276;-81
2023/06/17 11:18:06;;;;;;;5.00;4.50;;;23.40;44.40;;;;;;5015328;28;20692;-79
2023/06/17 11:20:35;;;;;;;4.90;4.35;;;23.40;44.40;;;;;;5017290;28;20167;-80
2023/06/17 11:23:04;;;;;;;4.50;4.10;;;23.50;44.30;;;;;;5017171;28;20150;-82
2023/06/17 11:25:31;;;;;;;4.50;4.10;;;23.40;44.30;;;;;;5045461;28;20181;-78
2023/06/17 11:27:56;;;;;;;4.50;4.10;;;23.50;44.20;;;;;;5050109;28;20171;-80
2023/06/17 11:30:25;;;;;;;4.90;4.40;;;23.40;44.30;;;;;;5036336;28;20253;-81
2023/06/17 11:32:51;;;;;;;4.53;4.13;;;23.50;44.20;;;;;;5037597;28;20560;-81
2023/06/17 11:35:17;;;;;;;4.53;4.13;;;23.50;44.20;;;;;;5000912;28;20166;-79
2023/06/17 11:37:43;;;;;;;4.80;3.90;;;23.50;44.20;;;;;;5048673;28;20170;-82
2023/06/17 11:40:11;;;;;;;4.40;4.00;;;23.50;44.10;;;;;;5021925;28;20185;-81
2023/06/17 11:42:37;;;;;;;4.68;4.20;;;23.40;44.10;;;;;;5030073;28;20182;-80
2023/06/17 11:45:04;;;;;;;4.40;4.00;;;23.50;44.10;;;;;;5031562;28;20718;-78
2023/06/17 11:47:33;;;;;;;4.90;4.20;;;23.50;44.00;;;;;;5019700;28;20240;-81
2023/06/17 11:49:59;;;;;;;4.55;4.15;;;23.50;44.00;;;;;;5019309;28;20228;-79
2023/06/17 11:52:24;;;;;;;4.30;3.90;;;23.50;44.00;;;;;;5016482;28;20186;-83
2023/06/17 11:54:51;;;;;;;5.40;4.50;;;23.50;44.10;;;;;;5034658;28;20213;-83
2023/06/17 11:57:23;;;;;;;5.80;4.50;;;23.50;44.00;;;;;;5036456;28;20189;-79
2023/06/17 11:59:49;;;;;;;5.00;4.30;;;23.50;44.00;;;;;;5016756;28;20162;-81
2023/06/17 12:02:15;;;;;;;4.82;4.32;;;23.50;44.10;;;;;;5041817;28;20175;-82
2023/06/17 12:04:45;;;;;;;5.22;4.40;;;23.40;44.10;;;;;;5054808;28;20158;-82
2023/06/17 12:07:11;;;;;;;4.65;4.20;;;23.50;44.10;;;;;;5036281;28;20178;-80
2023/06/17 12:09:37;;;;;;;4.40;4.00;;;23.50;44.60;;;;;;5036312;28;20197;-78
2023/06/17 12:12:04;;;;;;;4.95;4.30;;;23.60;43.90;;;;;;5022580;28;20200;-79
2023/06/17 12:14:30;;;;;;;4.78;4.20;;;23.50;43.80;;;;;;5036070;28;20158;-80
2023/06/17 12:16:56;;;;;;;4.93;4.28;;;23.50;43.80;;;;;;5037753;28;20171;-83
2023/06/17 12:19:23;;;;;;;4.45;4.05;;;23.60;43.90;;;;;;5034397;28;20166;-81
2023/06/17 12:21:50;;;;;;;4.93;4.30;;;23.50;43.80;;;;;;5016029;28;20554;-81
2023/06/17 12:24:16;;;;;;;4.72;4.25;;;23.50;43.70;;;;;;5015860;28;20178;-79
2023/06/17 12:26:43;;;;;;;4.82;4.32;;;23.60;43.70;;;;;;5033615;28;20265;-82
2023/06/17 12:29:09;;;;;;;4.80;4.30;;;23.60;43.60;;;;;;5017521;28;20669;-81
2023/06/17 12:31:35;;;;;;;4.60;4.20;;;23.50;43.70;;;;;;4999835;28;20678;-83
2023/06/17 12:34:02;;;;;;;4.32;3.92;;;23.50;43.60;;;;;;5015930;28;20170;-79
2023/06/17 12:36:28;;;;;;;4.85;4.28;;;23.50;43.50;;;;;;5017005;28;20233;-81
2023/06/17 12:38:54;;;;;;;4.57;4.07;;;23.60;43.50;;;;;;5033422;28;20632;-84
2023/06/17 12:41:20;;;;;;;4.82;4.30;;;23.60;43.40;;;;;;5034002;28;20198;-79
2023/06/17 12:43:47;;;;;;;4.80;4.30;;;23.70;43.30;;;;;;5015671;28;20204;-79
2023/06/17 12:46:14;;;;;;;5.15;4.65;;;23.60;43.30;;;;;;5015843;28;20150;-81